createdAt,value
2018-10-03T00:00:52.793Z,13.27
2018-10-03T00:03:22.057Z,11.57
2018-10-03T00:05:51.257Z,10.50
2018-10-03T00:08:20.605Z,10.43
2018-10-03T00:10:49.902Z,23.33
2018-10-03T00:13:19.150Z,11.27
2018-10-03T00:15:49.273Z,12.83
2018-10-03T00:18:18.366Z,12.27
2018-10-03T00:20:47.845Z,11.67
2018-10-03T00:23:17.249Z,11.00
2018-10-03T00:25:46.664Z,13.63
2018-10-03T00:28:15.873Z,11.13
2018-10-03T00:30:45.126Z,9.63
2018-10-03T00:33:14.366Z,10.63
2018-10-03T00:35:43.453Z,13.37
2018-10-03T00:38:12.702Z,13.60
2018-10-03T00:40:42.065Z,11.23
2018-10-03T00:43:11.632Z,16.07
2018-10-03T00:45:41.018Z,12.73
2018-10-03T00:48:10.233Z,17.53
2018-10-03T00:50:39.350Z,15.33
2018-10-03T00:53:08.624Z,15.77
2018-10-03T00:55:37.785Z,15.83
2018-10-03T00:58:06.880Z,19.03
2018-10-03T01:00:36.333Z,16.17
2018-10-03T01:03:05.605Z,15.77
2018-10-03T01:05:34.861Z,15.63
2018-10-03T01:08:04.289Z,13.83
2018-10-03T01:10:33.561Z,13.80
2018-10-03T01:13:02.751Z,15.37
2018-10-03T01:15:31.953Z,18.77
2018-10-03T01:18:01.245Z,15.40
2018-10-03T01:20:30.545Z,17.83
2018-10-03T01:22:59.789Z,18.00
2018-10-03T01:25:29.153Z,18.87
2018-10-03T01:27:58.361Z,17.50
2018-10-03T01:30:28.689Z,16.43
2018-10-03T01:32:57.777Z,18.27
2018-10-03T01:35:26.959Z,21.63
2018-10-03T01:37:56.324Z,16.30
2018-10-03T01:40:25.474Z,19.40
2018-10-03T01:42:54.561Z,16.20
2018-10-03T01:45:23.873Z,17.37
2018-10-03T01:47:52.957Z,15.80
2018-10-03T01:50:22.054Z,16.77
2018-10-03T01:52:51.397Z,17.67
2018-10-03T01:55:20.741Z,16.57
2018-10-03T01:57:50.970Z,17.40
2018-10-03T02:00:22.062Z,14.27
2018-10-03T02:02:51.420Z,22.97
2018-10-03T02:05:20.825Z,16.00
2018-10-03T02:07:50.013Z,17.40
2018-10-03T02:10:19.226Z,18.43
2018-10-03T02:12:48.349Z,16.70
2018-10-03T02:15:17.521Z,20.47
2018-10-03T02:17:46.481Z,17.50
2018-10-03T02:20:15.909Z,21.07
2018-10-03T02:22:45.213Z,19.17
2018-10-03T02:25:14.486Z,19.17
2018-10-03T02:27:44.506Z,19.23
2018-10-03T02:30:13.720Z,21.43
2018-10-03T02:32:43.062Z,22.80
2018-10-03T02:35:12.512Z,20.47
2018-10-03T02:37:41.648Z,21.30
2018-10-03T02:40:10.696Z,24.43
2018-10-03T02:42:40.322Z,20.47
2018-10-03T02:45:09.514Z,20.23
2018-10-03T02:47:38.822Z,18.37
2018-10-03T02:50:08.814Z,21.87
2018-10-03T02:52:37.930Z,20.80
2018-10-03T02:55:07.044Z,21.57
2018-10-03T02:57:36.629Z,21.40
2018-10-03T03:00:05.969Z,20.77
2018-10-03T03:02:35.460Z,25.87
2018-10-03T03:05:04.742Z,32.33
2018-10-03T03:07:33.925Z,28.03
2018-10-03T03:10:03.321Z,24.50
2018-10-03T03:12:32.704Z,25.30
2018-10-03T03:15:02.047Z,27.63
2018-10-03T03:17:31.264Z,26.77
2018-10-03T03:20:00.714Z,28.30
2018-10-03T03:22:29.937Z,30.87
2018-10-03T03:24:59.045Z,31.93
2018-10-03T03:27:28.260Z,30.23
2018-10-03T03:29:57.521Z,33.23
2018-10-03T03:32:26.734Z,32.80
2018-10-03T03:34:56.247Z,31.70
2018-10-03T03:37:25.338Z,33.30
2018-10-03T03:39:54.636Z,32.73
2018-10-03T03:42:23.876Z,31.17
2018-10-03T03:44:53.119Z,33.73
2018-10-03T03:47:22.290Z,37.10
2018-10-03T03:49:51.759Z,41.67
2018-10-03T03:52:20.934Z,36.87
2018-10-03T03:54:50.133Z,38.07
2018-10-03T03:57:19.527Z,38.77
2018-10-03T03:59:48.723Z,35.93
2018-10-03T04:02:18.124Z,31.70
2018-10-03T04:04:47.737Z,31.97
2018-10-03T04:07:22.665Z,37.50
2018-10-03T04:09:52.325Z,38.83
2018-10-03T04:12:21.775Z,36.17
2018-10-03T04:14:50.925Z,30.97
2018-10-03T04:17:20.241Z,34.30
2018-10-03T04:19:49.668Z,33.70
2018-10-03T04:22:18.929Z,36.53
2018-10-03T04:24:48.242Z,40.20
2018-10-03T04:27:17.275Z,35.57
2018-10-03T04:29:46.503Z,43.97
2018-10-03T04:32:15.862Z,40.83
2018-10-03T04:34:44.977Z,41.93
2018-10-03T04:37:14.041Z,40.13
2018-10-03T04:39:43.481Z,41.20
2018-10-03T04:42:12.704Z,43.93
2018-10-03T04:44:42.194Z,38.83
2018-10-03T04:47:11.469Z,40.37
2018-10-03T04:49:40.502Z,39.17
2018-10-03T04:52:09.697Z,43.07
2018-10-03T04:54:39.100Z,41.63
2018-10-03T04:57:08.197Z,37.37
2018-10-03T04:59:37.301Z,37.20
2018-10-03T05:02:06.626Z,40.13
2018-10-03T05:04:35.979Z,38.07
2018-10-03T05:07:05.279Z,39.30
2018-10-03T05:09:34.725Z,38.00
2018-10-03T05:12:03.914Z,40.23
2018-10-03T05:14:32.966Z,41.30
2018-10-03T05:17:02.319Z,40.60
2018-10-03T05:19:31.592Z,46.13
2018-10-03T05:22:00.762Z,39.97
2018-10-03T05:24:30.400Z,53.93
2018-10-03T05:26:59.581Z,39.23
2018-10-03T05:29:28.672Z,37.20
2018-10-03T05:31:58.937Z,34.60
2018-10-03T05:34:28.099Z,36.77
2018-10-03T05:36:57.283Z,34.30
2018-10-03T05:39:26.704Z,37.73
2018-10-03T05:41:55.889Z,40.03
2018-10-03T05:44:25.099Z,42.70
2018-10-03T05:46:54.236Z,35.87
2018-10-03T05:49:23.848Z,35.87
2018-10-03T05:51:53.087Z,45.40
2018-10-03T05:54:22.450Z,38.60
2018-10-03T05:56:51.603Z,33.27
2018-10-03T05:59:20.689Z,37.07
2018-10-03T06:01:50.094Z,36.47
2018-10-03T06:04:19.587Z,39.07
2018-10-03T06:06:48.946Z,33.07
2018-10-03T06:09:18.457Z,30.73
2018-10-03T06:11:47.733Z,32.47
2018-10-03T06:14:16.860Z,32.43
2018-10-03T06:16:46.306Z,31.53
2018-10-03T06:19:15.475Z,41.93
2018-10-03T06:21:44.635Z,33.50
2018-10-03T06:24:13.927Z,31.23
2018-10-03T06:26:43.137Z,31.80
2018-10-03T06:29:12.622Z,30.30
2018-10-03T06:31:42.153Z,33.10
2018-10-03T06:34:11.528Z,35.07
2018-10-03T06:36:40.673Z,35.53
2018-10-03T06:39:10.761Z,41.10
2018-10-03T06:41:41.161Z,32.93
2018-10-03T06:44:10.896Z,41.30
2018-10-03T06:46:40.008Z,33.90
2018-10-03T06:49:09.209Z,37.57
2018-10-03T06:51:38.361Z,28.67
2018-10-03T06:54:07.591Z,38.20
2018-10-03T06:56:36.780Z,31.07
2018-10-03T06:59:07.150Z,30.80
2018-10-03T07:01:36.324Z,36.57
2018-10-03T07:04:05.401Z,30.87
2018-10-03T07:06:34.941Z,33.87
2018-10-03T07:09:05.301Z,31.67
2018-10-03T07:11:35.613Z,69.37
2018-10-03T07:14:04.977Z,42.43
2018-10-03T07:16:34.545Z,40.60
2018-10-03T07:19:03.773Z,28.07
2018-10-03T07:21:32.873Z,31.73
2018-10-03T07:24:02.213Z,31.90
2018-10-03T07:26:31.463Z,29.80
2018-10-03T07:29:00.814Z,31.87
2018-10-03T07:31:30.541Z,46.60
2018-10-03T07:33:59.783Z,30.43
2018-10-03T07:36:28.892Z,27.87
2018-10-03T07:38:58.240Z,30.47
2018-10-03T07:41:27.569Z,30.03
2018-10-03T07:43:56.872Z,27.20
2018-10-03T07:46:26.578Z,21.80
2018-10-03T07:48:55.689Z,21.53
2018-10-03T07:51:24.889Z,21.50
2018-10-03T07:53:54.126Z,31.03
2018-10-03T07:56:23.493Z,22.87
2018-10-03T07:58:53.029Z,19.33
2018-10-03T08:01:22.470Z,20.03
2018-10-03T08:03:51.610Z,21.00
2018-10-03T08:06:21.327Z,21.03
2018-10-03T08:08:50.505Z,20.70
2018-10-03T08:11:19.795Z,18.90
2018-10-03T08:13:48.902Z,22.00
2018-10-03T08:16:18.149Z,30.00
2018-10-03T08:18:47.294Z,21.13
2018-10-03T08:21:16.382Z,19.10
2018-10-03T08:23:45.843Z,18.53
2018-10-03T08:26:15.164Z,26.40
2018-10-03T08:28:46.498Z,26.10
2018-10-03T08:31:15.717Z,41.37
2018-10-03T08:33:44.870Z,19.40
2018-10-03T08:36:14.395Z,19.50
2018-10-03T08:38:43.691Z,21.00
2018-10-03T08:41:12.934Z,19.77
2018-10-03T08:43:42.293Z,19.60
2018-10-03T08:46:11.439Z,19.57
2018-10-03T08:48:40.637Z,20.33
2018-10-03T08:51:09.769Z,20.53
2018-10-03T08:53:38.801Z,23.00
2018-10-03T08:56:08.014Z,18.90
2018-10-03T08:58:37.459Z,17.43
2018-10-03T09:01:07.022Z,26.47
2018-10-03T09:03:36.258Z,24.17
2018-10-03T09:06:05.661Z,20.77
2018-10-03T09:08:35.113Z,22.50
2018-10-03T09:11:04.316Z,21.10
2018-10-03T09:13:33.753Z,20.03
2018-10-03T09:16:02.933Z,18.77
2018-10-03T09:18:32.115Z,30.07
2018-10-03T09:21:01.393Z,16.73
2018-10-03T09:23:30.626Z,18.87
2018-10-03T09:25:59.842Z,17.03
2018-10-03T09:28:29.045Z,39.37
2018-10-03T09:30:58.520Z,16.03
2018-10-03T09:33:27.801Z,17.97
2018-10-03T09:35:57.409Z,17.70
2018-10-03T09:38:26.408Z,17.13
2018-10-03T09:40:55.517Z,18.60
2018-10-03T09:43:24.987Z,18.17
2018-10-03T09:45:54.098Z,14.77
2018-10-03T09:48:23.205Z,12.87
2018-10-03T09:50:52.352Z,16.40
2018-10-03T09:53:21.729Z,14.83
2018-10-03T09:55:50.993Z,13.00
2018-10-03T09:58:20.380Z,14.50
2018-10-03T10:00:54.679Z,13.93
2018-10-03T10:03:24.189Z,12.23
2018-10-03T10:05:53.422Z,21.10
2018-10-03T10:08:22.733Z,28.33
2018-10-03T10:10:52.419Z,30.67
2018-10-03T10:13:21.535Z,12.60
2018-10-03T10:15:50.638Z,15.73
2018-10-03T10:18:19.861Z,13.20
2018-10-03T10:20:49.293Z,12.17
2018-10-03T10:23:18.747Z,14.30
2018-10-03T10:25:47.981Z,11.63
2018-10-03T10:28:17.157Z,14.93
2018-10-03T10:30:46.370Z,12.57
2018-10-03T10:33:15.573Z,12.03
2018-10-03T10:35:44.814Z,13.80
2018-10-03T10:38:14.010Z,14.57
2018-10-03T10:40:43.656Z,18.10
2018-10-03T10:43:12.865Z,16.47
2018-10-03T10:45:42.141Z,13.80
2018-10-03T10:48:12.146Z,16.37
2018-10-03T10:50:41.456Z,12.20
2018-10-03T10:53:10.666Z,13.33
2018-10-03T10:55:40.207Z,10.57
2018-10-03T10:58:09.785Z,10.20
2018-10-03T11:00:39.034Z,14.10
2018-10-03T11:03:08.447Z,16.43
2018-10-03T11:05:37.669Z,13.13
2018-10-03T11:08:06.762Z,13.53
2018-10-03T11:10:36.022Z,12.47
2018-10-03T11:13:05.449Z,12.77
2018-10-03T11:15:34.807Z,13.93
2018-10-03T11:18:04.093Z,16.10
2018-10-03T11:20:33.286Z,11.37
2018-10-03T11:23:02.615Z,14.23
2018-10-03T11:25:31.985Z,10.47
2018-10-03T11:28:01.239Z,18.37
2018-10-03T11:30:30.566Z,22.40
2018-10-03T11:33:00.109Z,10.77
2018-10-03T11:35:29.363Z,26.00
2018-10-03T11:37:58.457Z,14.53
2018-10-03T11:40:27.731Z,13.73
2018-10-03T11:42:56.840Z,31.47
2018-10-03T11:45:25.958Z,14.23
2018-10-03T11:47:55.089Z,10.37
2018-10-03T11:50:24.339Z,17.07
2018-10-03T11:52:53.631Z,12.37
2018-10-03T11:55:23.149Z,10.33
2018-10-03T11:57:52.242Z,12.00
2018-10-03T12:00:21.437Z,24.97
2018-10-03T12:02:50.748Z,9.87
2018-10-03T12:05:20.121Z,9.60
2018-10-03T12:07:49.450Z,9.27
2018-10-03T12:10:18.838Z,10.57
2018-10-03T12:12:48.021Z,11.03
2018-10-03T12:15:17.243Z,11.73
2018-10-03T12:17:46.477Z,19.17
2018-10-03T12:20:15.733Z,32.37
2018-10-03T12:22:44.814Z,36.13
2018-10-03T12:25:14.004Z,34.63
2018-10-03T12:27:43.402Z,12.47
2018-10-03T12:30:12.640Z,10.80
2018-10-03T12:32:42.114Z,22.97
2018-10-03T12:35:11.143Z,14.13
2018-10-03T12:37:40.445Z,16.90
2018-10-03T12:40:09.783Z,14.13
2018-10-03T12:42:39.029Z,10.27
2018-10-03T12:45:08.327Z,43.87
2018-10-03T12:47:38.157Z,28.93
2018-10-03T12:50:07.328Z,15.00
2018-10-03T12:52:36.426Z,84.63
2018-10-03T12:55:05.877Z,21.77
2018-10-03T12:57:35.113Z,14.90
2018-10-03T13:00:04.517Z,64.03
2018-10-03T13:02:33.885Z,13.50
2018-10-03T13:05:03.133Z,123.37
2018-10-03T13:07:32.237Z,100.43
2018-10-03T13:10:01.649Z,13.13
2018-10-03T13:12:31.246Z,23.20
2018-10-03T13:15:00.529Z,40.17
2018-10-03T13:17:29.920Z,13.67
2018-10-03T13:19:59.035Z,25.30
2018-10-03T13:22:28.262Z,14.20
2018-10-03T13:24:57.509Z,16.93
2018-10-03T13:27:26.631Z,13.73
2018-10-03T13:29:55.722Z,12.27
2018-10-03T13:32:25.033Z,17.37
2018-10-03T13:34:54.240Z,35.10
2018-10-03T13:37:23.322Z,72.20
2018-10-03T13:39:52.697Z,19.23
2018-10-03T13:42:21.794Z,13.63
2018-10-03T13:44:50.897Z,20.47
2018-10-03T13:47:20.429Z,23.77
2018-10-03T13:49:49.693Z,18.10
2018-10-03T13:52:18.930Z,15.13
2018-10-03T13:54:48.141Z,14.50
2018-10-03T13:57:17.371Z,48.93
2018-10-03T13:59:46.509Z,56.53
2018-10-03T14:02:15.865Z,19.37
2018-10-03T14:04:45.113Z,20.23
2018-10-03T14:07:14.189Z,18.57
2018-10-03T14:09:43.643Z,21.40
2018-10-03T14:12:12.811Z,21.53
2018-10-03T14:14:41.998Z,47.10
2018-10-03T14:17:11.175Z,24.13
2018-10-03T14:19:40.394Z,22.20
2018-10-03T14:22:09.577Z,17.50
2018-10-03T14:24:38.941Z,18.97
2018-10-03T14:27:08.303Z,18.77
2018-10-03T14:29:37.945Z,19.43
2018-10-03T14:32:07.309Z,23.80
2018-10-03T14:34:36.402Z,48.33
2018-10-03T14:37:05.493Z,20.07
2018-10-03T14:39:34.705Z,26.57
2018-10-03T14:42:03.985Z,38.80
2018-10-03T14:44:33.200Z,31.77
2018-10-03T14:47:02.783Z,19.27
2018-10-03T14:49:32.079Z,25.83
2018-10-03T14:52:01.248Z,181.87
2018-10-03T14:54:30.661Z,35.33
2018-10-03T14:56:59.903Z,33.67
2018-10-03T14:59:29.109Z,30.83
2018-10-03T15:01:58.453Z,39.93
2018-10-03T15:04:27.720Z,28.30
2018-10-03T15:06:57.017Z,18.20
2018-10-03T15:09:26.245Z,26.93
2018-10-03T15:11:55.385Z,74.10
2018-10-03T15:14:24.525Z,47.30
2018-10-03T15:16:53.774Z,32.50
2018-10-03T15:19:23.180Z,33.50
2018-10-03T15:21:52.361Z,31.63
2018-10-03T15:24:21.931Z,46.87
2018-10-03T15:26:51.281Z,35.93
2018-10-03T15:29:20.581Z,46.93
2018-10-03T15:31:49.947Z,26.00
2018-10-03T15:34:19.089Z,29.33
2018-10-03T15:36:48.266Z,30.10
2018-10-03T15:39:17.525Z,21.23
2018-10-03T15:41:46.781Z,19.73
2018-10-03T15:44:16.066Z,35.40
2018-10-03T15:46:45.358Z,22.47
2018-10-03T15:49:14.661Z,31.20
2018-10-03T15:51:43.888Z,29.80
2018-10-03T15:54:13.148Z,31.03
2018-10-03T15:56:42.457Z,33.37
2018-10-03T15:59:11.585Z,102.03
2018-10-03T16:01:41.001Z,84.40
2018-10-03T16:04:10.809Z,57.37
2018-10-03T16:06:40.141Z,66.93
2018-10-03T16:09:10.421Z,54.33
2018-10-03T16:11:40.092Z,41.63
2018-10-03T16:14:09.977Z,51.07
2018-10-03T16:16:39.213Z,36.63
2018-10-03T16:19:08.434Z,42.97
2018-10-03T16:21:37.689Z,44.43
2018-10-03T16:24:06.830Z,42.47
2018-10-03T16:26:35.917Z,49.67
2018-10-03T16:29:05.437Z,35.43
2018-10-03T16:31:34.609Z,42.17
2018-10-03T16:34:03.817Z,31.53
2018-10-03T16:36:33.356Z,26.03
2018-10-03T16:39:02.875Z,29.40
2018-10-03T16:41:32.223Z,24.07
2018-10-03T16:44:01.733Z,25.93
2018-10-03T16:46:30.942Z,25.50
2018-10-03T16:49:00.033Z,20.23
2018-10-03T16:51:29.319Z,19.73
2018-10-03T16:53:58.553Z,23.30
2018-10-03T16:56:27.722Z,22.43
2018-10-03T16:58:56.893Z,27.40
2018-10-03T17:01:26.211Z,21.43
2018-10-03T17:03:55.526Z,25.37
2018-10-03T17:06:25.110Z,33.03
2018-10-03T17:08:54.334Z,27.77
2018-10-03T17:11:23.673Z,21.97
2018-10-03T17:14:34.109Z,25.03
2018-10-03T17:17:03.285Z,26.83
2018-10-03T17:19:32.481Z,26.43
2018-10-03T17:22:02.350Z,28.00
2018-10-03T17:24:32.801Z,32.10
2018-10-03T17:27:02.233Z,39.47
2018-10-03T17:29:31.404Z,44.37
2018-10-03T17:32:00.529Z,36.47
2018-10-03T17:34:30.097Z,37.90
2018-10-03T17:36:59.417Z,37.93
2018-10-03T17:39:28.943Z,35.90
2018-10-03T17:41:58.467Z,37.73
2018-10-03T17:44:27.734Z,39.93
2018-10-03T17:46:58.190Z,33.80
2018-10-03T17:49:27.386Z,32.57
2018-10-03T17:51:56.447Z,29.83
2018-10-03T17:54:26.086Z,33.17
2018-10-03T17:56:55.346Z,31.20
2018-10-03T17:59:24.658Z,33.47
2018-10-03T18:01:55.816Z,25.50
2018-10-03T18:04:24.927Z,23.10
2018-10-03T18:06:54.265Z,25.20
2018-10-03T18:09:23.656Z,28.20
2018-10-03T18:11:52.790Z,27.93
2018-10-03T18:14:21.990Z,25.00
2018-10-03T18:16:51.446Z,26.03
2018-10-03T18:19:20.706Z,26.13
2018-10-03T18:21:49.911Z,23.20
2018-10-03T18:24:19.606Z,24.50
2018-10-03T18:26:48.798Z,24.03
2018-10-03T18:29:18.117Z,26.37
2018-10-03T18:31:48.211Z,23.80
2018-10-03T18:34:17.315Z,18.13
2018-10-03T18:36:46.609Z,16.97
2018-10-03T18:39:16.225Z,17.73
2018-10-03T18:41:45.525Z,16.80
2018-10-03T18:44:14.729Z,16.90
2018-10-03T18:46:43.953Z,16.57
2018-10-03T18:49:13.417Z,15.50
2018-10-03T18:51:42.791Z,15.00
2018-10-03T18:54:12.330Z,15.83
2018-10-03T18:56:41.325Z,17.40
2018-10-03T18:59:10.607Z,24.53
2018-10-03T19:01:39.812Z,16.30
2018-10-03T19:04:09.640Z,19.13
2018-10-03T19:06:38.845Z,24.23
2018-10-03T19:09:09.934Z,18.57
2018-10-03T19:11:39.075Z,16.43
2018-10-03T19:14:08.678Z,18.37
2018-10-03T19:16:37.990Z,16.90
2018-10-03T19:19:07.369Z,19.00
2018-10-03T19:21:36.567Z,19.27
2018-10-03T19:24:05.836Z,38.13
2018-10-03T19:26:35.191Z,39.97
2018-10-03T19:29:04.689Z,47.00
2018-10-03T19:31:34.212Z,48.83
2018-10-03T19:34:03.471Z,56.30
2018-10-03T19:36:32.597Z,42.40
2018-10-03T19:39:01.870Z,26.00
2018-10-03T19:41:31.101Z,27.37
2018-10-03T19:44:00.436Z,37.87
2018-10-03T19:46:29.712Z,47.00
2018-10-03T19:48:59.078Z,36.20
2018-10-03T19:51:28.380Z,66.23
2018-10-03T19:53:58.030Z,95.57
2018-10-03T19:56:27.223Z,99.17
2018-10-03T19:58:56.405Z,87.57
2018-10-03T20:01:25.566Z,67.83
2018-10-03T20:03:54.939Z,54.63
2018-10-03T20:06:24.389Z,45.63
2018-10-03T20:08:53.725Z,43.10
2018-10-03T20:11:22.989Z,33.87
2018-10-03T20:13:52.214Z,29.83
2018-10-03T20:16:22.214Z,30.57
2018-10-03T20:18:51.308Z,27.87
2018-10-03T20:21:20.577Z,26.77
2018-10-03T20:23:49.845Z,21.43
2018-10-03T20:26:19.027Z,22.50
2018-10-03T20:28:48.286Z,28.00
2018-10-03T20:31:17.717Z,25.80
2018-10-03T20:33:46.876Z,34.27
2018-10-03T20:36:16.098Z,31.40
2018-10-03T20:38:45.534Z,39.30
2018-10-03T20:41:14.708Z,29.20
2018-10-03T20:43:43.913Z,55.17
2018-10-03T20:46:13.269Z,39.43
2018-10-03T20:48:42.579Z,73.57
2018-10-03T20:51:11.892Z,77.20
2018-10-03T20:53:41.209Z,58.20
2018-10-03T20:56:10.397Z,61.13
2018-10-03T20:58:39.485Z,26.50
2018-10-03T21:01:08.858Z,14.20
2018-10-03T21:03:38.173Z,8.43
2018-10-03T21:06:07.659Z,9.20
2018-10-03T21:08:37.074Z,9.50
2018-10-03T21:11:06.339Z,7.67
2018-10-03T21:13:35.552Z,7.63
2018-10-03T21:16:04.910Z,11.10
2018-10-03T21:18:34.728Z,7.23
2018-10-03T21:21:04.310Z,9.97
2018-10-03T21:23:33.939Z,7.23
2018-10-03T21:26:03.263Z,12.87
2018-10-03T21:28:32.947Z,7.47
2018-10-03T21:31:01.973Z,10.40
2018-10-03T21:33:31.187Z,10.47
2018-10-03T21:36:00.504Z,6.00
2018-10-03T21:38:29.871Z,6.43
2018-10-03T21:40:59.271Z,10.07
2018-10-03T21:43:28.650Z,7.93
2018-10-03T21:45:57.988Z,5.70
2018-10-03T21:48:27.454Z,5.87
2018-10-03T21:50:57.034Z,7.27
2018-10-03T21:53:26.128Z,8.57
2018-10-03T21:55:55.425Z,8.47
2018-10-03T21:58:24.657Z,5.67
2018-10-03T22:00:54.741Z,7.17
2018-10-03T22:03:25.055Z,9.53
2018-10-03T22:05:54.631Z,7.03
2018-10-03T22:08:24.151Z,7.40
2018-10-03T22:10:53.775Z,7.10
2018-10-03T22:13:23.166Z,6.83
2018-10-03T22:15:52.692Z,6.97
2018-10-03T22:18:22.246Z,7.10
2018-10-03T22:20:52.329Z,7.10
2018-10-03T22:23:22.182Z,12.57
2018-10-03T22:25:51.795Z,8.33
2018-10-03T22:28:21.414Z,6.07
2018-10-03T22:30:51.077Z,5.53
2018-10-03T22:33:20.442Z,6.63
2018-10-03T22:35:49.847Z,8.50
2018-10-03T22:38:19.110Z,6.27
2018-10-03T22:40:48.378Z,7.90
2018-10-03T22:43:17.816Z,8.03
2018-10-03T22:45:47.203Z,6.70
2018-10-03T22:48:16.411Z,6.27
2018-10-03T22:50:45.875Z,6.33
2018-10-03T22:53:14.964Z,6.17
2018-10-03T22:55:44.079Z,6.73
2018-10-03T22:58:13.542Z,7.40
2018-10-03T23:00:42.881Z,6.57
2018-10-03T23:03:12.197Z,6.73
2018-10-03T23:05:41.655Z,5.80
2018-10-03T23:08:10.776Z,5.90
2018-10-03T23:10:40.132Z,8.80
2018-10-03T23:13:09.448Z,5.77
2018-10-03T23:15:38.663Z,9.17
2018-10-03T23:18:07.870Z,6.23
2018-10-03T23:20:37.304Z,8.70
2018-10-03T23:23:06.491Z,6.57
2018-10-03T23:25:35.780Z,8.40
2018-10-03T23:28:05.062Z,5.67
2018-10-03T23:30:34.274Z,8.27
2018-10-03T23:33:03.575Z,11.43
2018-10-03T23:35:33.132Z,9.90
2018-10-03T23:38:02.359Z,9.20
2018-10-03T23:40:31.656Z,5.70
2018-10-03T23:43:01.001Z,4.90
2018-10-03T23:45:30.239Z,6.30
2018-10-03T23:47:59.635Z,7.73
2018-10-03T23:50:29.072Z,6.03
2018-10-03T23:52:58.339Z,8.90
2018-10-03T23:55:27.534Z,7.43
2018-10-03T23:57:56.999Z,6.33
